createdAt,value
2023-04-15T00:00:41.148Z,42.70
2023-04-15T00:01:41.189Z,42.66
2023-04-15T00:02:41.266Z,42.68
2023-04-15T00:03:41.378Z,42.68
2023-04-15T00:04:41.234Z,42.69
2023-04-15T00:05:41.138Z,42.65
2023-04-15T00:06:41.134Z,42.65
2023-04-15T00:07:41.133Z,42.65
2023-04-15T00:08:41.126Z,42.64
2023-04-15T00:09:41.134Z,42.61
2023-04-15T00:10:41.140Z,42.62
2023-04-15T00:11:41.130Z,42.62
2023-04-15T00:12:41.133Z,42.61
2023-04-15T00:13:41.181Z,42.58
2023-04-15T00:14:41.136Z,42.60
2023-04-15T00:15:41.135Z,42.59
2023-04-15T00:16:41.171Z,42.56
2023-04-15T00:17:41.198Z,42.57
2023-04-15T00:18:41.131Z,42.55
2023-04-15T00:19:41.122Z,42.57
2023-04-15T00:20:41.121Z,42.56
2023-04-15T00:21:41.117Z,42.52
2023-04-15T00:22:41.119Z,42.54
2023-04-15T00:23:41.133Z,42.52
2023-04-15T00:24:41.138Z,42.53
2023-04-15T00:25:41.127Z,42.50
2023-04-15T00:26:41.115Z,42.50
2023-04-15T00:27:41.114Z,42.50
2023-04-15T00:28:41.114Z,42.48
2023-04-15T00:29:41.118Z,42.49
2023-04-15T00:30:41.144Z,42.48
2023-04-15T00:31:41.114Z,42.47
2023-04-15T00:32:41.157Z,42.48
2023-04-15T00:33:41.112Z,42.46
2023-04-15T00:34:41.112Z,42.48
2023-04-15T00:35:41.126Z,42.47
2023-04-15T00:36:41.133Z,42.47
2023-04-15T00:37:41.148Z,42.45
2023-04-15T00:38:41.165Z,42.45
2023-04-15T00:39:41.180Z,42.43
2023-04-15T00:40:41.192Z,42.41
2023-04-15T00:41:41.191Z,42.41
2023-04-15T00:42:41.228Z,42.41
2023-04-15T00:43:41.210Z,42.42
2023-04-15T00:44:41.230Z,42.41
2023-04-15T00:45:41.294Z,42.39
2023-04-15T00:46:41.259Z,42.41
2023-04-15T00:47:41.327Z,42.38
2023-04-15T00:48:41.291Z,42.40
2023-04-15T00:49:41.291Z,42.38
2023-04-15T00:50:41.304Z,42.39
2023-04-15T00:51:41.319Z,42.39
2023-04-15T00:52:41.332Z,42.36
2023-04-15T00:53:41.491Z,42.35
2023-04-15T00:54:41.363Z,42.37
2023-04-15T00:55:41.361Z,42.35
2023-04-15T00:56:41.382Z,42.34
2023-04-15T00:57:41.389Z,42.34
2023-04-15T00:58:41.402Z,42.32
2023-04-15T00:59:41.407Z,42.32
2023-04-15T01:00:41.424Z,42.32
2023-04-15T01:01:41.495Z,42.33
2023-04-15T01:02:41.599Z,42.30
2023-04-15T01:03:41.670Z,42.32
2023-04-15T01:04:41.515Z,42.29
2023-04-15T01:05:41.480Z,42.29
2023-04-15T01:06:41.479Z,42.28
2023-04-15T01:07:41.492Z,42.27
2023-04-15T01:08:41.508Z,42.29
2023-04-15T01:09:41.518Z,42.30
2023-04-15T01:10:41.532Z,42.28
2023-04-15T01:11:41.542Z,42.25
2023-04-15T01:12:41.539Z,42.24
2023-04-15T01:13:41.566Z,42.25
2023-04-15T01:14:41.551Z,42.24
2023-04-15T01:15:41.608Z,42.22
2023-04-15T01:16:41.573Z,42.24
2023-04-15T01:17:41.625Z,42.25
2023-04-15T01:18:41.610Z,42.23
2023-04-15T01:19:41.617Z,42.23
2023-04-15T01:20:41.614Z,42.21
2023-04-15T01:21:41.622Z,42.24
2023-04-15T01:22:41.617Z,42.21
2023-04-15T01:23:41.632Z,42.19
2023-04-15T01:24:41.650Z,42.22
2023-04-15T01:25:41.659Z,42.18
2023-04-15T01:26:42.329Z,42.19
2023-04-15T01:27:41.719Z,42.19
2023-04-15T01:28:41.690Z,42.16
2023-04-15T01:29:41.697Z,42.17
2023-04-15T01:30:41.716Z,42.19
2023-04-15T01:31:41.759Z,42.15
2023-04-15T01:32:41.761Z,42.14
2023-04-15T01:33:41.736Z,42.14
2023-04-15T01:34:41.753Z,42.15
2023-04-15T01:35:41.752Z,42.13
2023-04-15T01:36:41.761Z,42.12
2023-04-15T01:37:41.767Z,42.12
2023-04-15T01:38:41.783Z,42.13
2023-04-15T01:39:41.796Z,42.10
2023-04-15T01:40:41.798Z,42.13
2023-04-15T01:41:41.801Z,42.08
2023-04-15T01:42:41.833Z,42.09
2023-04-15T01:43:41.840Z,42.09
2023-04-15T01:44:41.867Z,42.08
2023-04-15T01:45:41.870Z,42.08
2023-04-15T01:46:41.904Z,42.07
2023-04-15T01:47:41.957Z,42.08
2023-04-15T01:48:41.978Z,42.08
2023-04-15T01:49:41.928Z,42.06
2023-04-15T01:50:41.943Z,42.08
2023-04-15T01:51:41.953Z,42.03
2023-04-15T01:52:41.968Z,42.04
2023-04-15T01:53:41.987Z,42.07
2023-04-15T01:54:42.004Z,42.02
2023-04-15T01:55:42.020Z,42.03
2023-04-15T01:56:42.030Z,42.02
2023-04-15T01:57:42.041Z,42.02
2023-04-15T01:58:42.065Z,42.03
2023-04-15T01:59:42.073Z,42.03
2023-04-15T02:00:42.112Z,42.00
2023-04-15T02:01:42.107Z,42.00
2023-04-15T02:02:42.232Z,42.00
2023-04-15T02:03:42.168Z,42.00
2023-04-15T02:04:42.138Z,42.01
2023-04-15T02:05:42.145Z,41.98
2023-04-15T02:06:42.159Z,41.99
2023-04-15T02:07:42.171Z,41.98
2023-04-15T02:08:42.197Z,41.94
2023-04-15T02:09:42.202Z,41.94
2023-04-15T02:10:42.224Z,41.96
2023-04-15T02:11:42.226Z,41.95
2023-04-15T02:12:42.240Z,41.95
2023-04-15T02:13:42.246Z,41.95
2023-04-15T02:14:42.275Z,41.93
2023-04-15T02:15:42.277Z,41.94
2023-04-15T02:16:42.314Z,41.93
2023-04-15T02:17:42.332Z,41.93
2023-04-15T02:18:42.309Z,41.91
2023-04-15T02:19:42.336Z,41.90
2023-04-15T02:20:42.341Z,41.90
2023-04-15T02:21:42.358Z,41.89
2023-04-15T02:22:42.378Z,41.87
2023-04-15T02:23:42.388Z,41.88
2023-04-15T02:24:42.397Z,41.91
2023-04-15T02:25:42.414Z,41.91
2023-04-15T02:26:43.407Z,41.89
2023-04-15T02:27:42.409Z,41.86
2023-04-15T02:28:42.393Z,41.84
2023-04-15T02:29:42.385Z,41.88
2023-04-15T02:30:42.370Z,41.83
2023-04-15T02:31:42.454Z,41.84
2023-04-15T02:32:42.388Z,41.83
2023-04-15T02:33:42.341Z,41.84
2023-04-15T02:34:42.337Z,41.83
2023-04-15T02:35:42.328Z,41.86
2023-04-15T02:36:42.324Z,41.83
2023-04-15T02:37:42.316Z,41.86
2023-04-15T02:38:42.321Z,41.82
2023-04-15T02:39:42.310Z,41.82
2023-04-15T02:40:42.316Z,41.81
2023-04-15T02:41:42.298Z,41.80
2023-04-15T02:42:42.290Z,41.80
2023-04-15T02:43:42.292Z,41.80
2023-04-15T02:44:42.294Z,41.79
2023-04-15T02:45:42.305Z,41.81
2023-04-15T02:46:42.317Z,41.76
2023-04-15T02:47:42.325Z,41.80
2023-04-15T02:49:42.289Z,41.78
2023-04-15T02:50:42.277Z,41.76
2023-04-15T02:51:42.276Z,41.75
2023-04-15T02:52:42.262Z,41.75
2023-04-15T02:53:42.279Z,41.77
2023-04-15T02:54:42.280Z,41.77
2023-04-15T02:55:42.290Z,41.72
2023-04-15T02:56:42.317Z,41.77
2023-04-15T02:57:42.357Z,41.77
2023-04-15T02:58:42.363Z,41.75
2023-04-15T02:59:42.395Z,41.74
2023-04-15T03:00:42.410Z,41.73
2023-04-15T03:01:42.491Z,41.72
2023-04-15T03:02:42.656Z,41.70
2023-04-15T03:03:42.536Z,41.70
2023-04-15T03:04:42.494Z,41.72
2023-04-15T03:05:42.505Z,41.66
2023-04-15T03:06:42.524Z,41.70
2023-04-15T03:07:42.544Z,41.72
2023-04-15T03:08:42.570Z,41.69
2023-04-15T03:09:42.579Z,41.67
2023-04-15T03:10:42.590Z,41.68
2023-04-15T03:11:42.619Z,41.69
2023-04-15T03:12:42.636Z,41.66
2023-04-15T03:13:42.654Z,41.66
2023-04-15T03:14:42.669Z,41.64
2023-04-15T03:15:42.705Z,41.65
2023-04-15T03:16:42.713Z,41.67
2023-04-15T03:17:42.754Z,41.64
2023-04-15T03:18:42.747Z,41.66
2023-04-15T03:19:42.759Z,41.65
2023-04-15T03:20:42.867Z,41.63
2023-04-15T03:21:42.788Z,41.63
2023-04-15T03:22:42.813Z,41.63
2023-04-15T03:23:42.830Z,41.63
2023-04-15T03:24:42.837Z,41.61
2023-04-15T03:25:42.845Z,41.61
2023-04-15T03:26:42.864Z,41.62
2023-04-15T03:27:42.874Z,41.63
2023-04-15T03:28:42.893Z,41.57
2023-04-15T03:29:42.916Z,41.62
2023-04-15T03:30:42.931Z,41.56
2023-04-15T03:31:42.919Z,41.58
2023-04-15T03:32:42.976Z,41.57
2023-04-15T03:33:42.953Z,41.56
2023-04-15T03:34:42.967Z,41.59
2023-04-15T03:35:42.989Z,41.57
2023-04-15T03:36:43.005Z,41.55
2023-04-15T03:37:43.022Z,41.54
2023-04-15T03:38:43.036Z,41.52
2023-04-15T03:39:43.040Z,41.53
2023-04-15T03:40:43.051Z,41.52
2023-04-15T03:41:43.065Z,41.53
2023-04-15T03:42:43.086Z,41.53
2023-04-15T03:43:43.105Z,41.52
2023-04-15T03:44:43.121Z,41.50
2023-04-15T03:45:43.136Z,41.53
2023-04-15T03:46:43.231Z,41.46
2023-04-15T03:47:43.196Z,41.49
2023-04-15T03:48:43.176Z,41.49
2023-04-15T03:49:43.199Z,41.50
2023-04-15T03:50:43.213Z,41.48
2023-04-15T03:51:43.214Z,41.49
2023-04-15T03:52:43.230Z,41.48
2023-04-15T03:53:43.247Z,41.47
2023-04-15T03:54:43.269Z,41.45
2023-04-15T03:55:43.289Z,41.47
2023-04-15T03:56:43.295Z,41.48
2023-04-15T03:57:43.322Z,41.45
2023-04-15T03:58:43.325Z,41.46
2023-04-15T03:59:43.340Z,41.42
2023-04-15T04:00:43.359Z,41.43
2023-04-15T04:01:43.384Z,41.42
2023-04-15T04:02:43.501Z,41.40
2023-04-15T04:03:43.617Z,41.41
2023-04-15T04:04:43.425Z,41.40
2023-04-15T04:05:43.448Z,41.42
2023-04-15T04:06:43.443Z,41.42
2023-04-15T04:07:43.474Z,41.40
2023-04-15T04:08:43.478Z,41.40
2023-04-15T04:09:43.923Z,41.40
2023-04-15T04:10:43.500Z,41.40
2023-04-15T04:11:43.505Z,41.38
2023-04-15T04:12:43.522Z,41.38
2023-04-15T04:13:43.530Z,41.38
2023-04-15T04:14:43.554Z,41.39
2023-04-15T04:15:43.635Z,41.35
2023-04-15T04:16:43.628Z,41.34
2023-04-15T04:17:43.605Z,41.33
2023-04-15T04:18:43.591Z,41.32
2023-04-15T04:19:43.608Z,41.33
2023-04-15T04:20:43.632Z,41.31
2023-04-15T04:21:43.647Z,41.29
2023-04-15T04:22:43.655Z,41.32
2023-04-15T04:23:43.664Z,41.32
2023-04-15T04:24:43.676Z,41.32
2023-04-15T04:25:43.688Z,41.32
2023-04-15T04:26:43.688Z,41.31
2023-04-15T04:27:43.705Z,41.30
2023-04-15T04:28:43.727Z,41.27
2023-04-15T04:29:43.735Z,41.28
2023-04-15T04:30:43.743Z,41.29
2023-04-15T04:31:43.788Z,41.26
2023-04-15T04:32:43.804Z,41.26
2023-04-15T04:33:43.778Z,41.28
2023-04-15T04:34:43.804Z,41.26
2023-04-15T04:35:43.804Z,41.27
2023-04-15T04:36:43.825Z,41.24
2023-04-15T04:37:43.838Z,41.24
2023-04-15T04:38:43.842Z,41.21
2023-04-15T04:39:43.871Z,41.25
2023-04-15T04:40:43.881Z,41.23
2023-04-15T04:41:43.889Z,41.21
2023-04-15T04:42:43.905Z,41.22
2023-04-15T04:43:43.924Z,41.20
2023-04-15T04:44:44.065Z,41.22
2023-04-15T04:45:43.972Z,41.18
2023-04-15T04:46:43.974Z,41.18
2023-04-15T04:47:44.013Z,41.15
2023-04-15T04:48:46.564Z,41.18
2023-04-15T04:49:43.996Z,41.20
2023-04-15T04:50:43.997Z,41.16
2023-04-15T04:51:43.998Z,41.18
2023-04-15T04:52:43.992Z,41.17
2023-04-15T04:53:43.981Z,41.12
2023-04-15T04:54:43.976Z,41.16
2023-04-15T04:55:43.988Z,41.13
2023-04-15T04:56:43.993Z,41.14
2023-04-15T04:57:43.984Z,41.11
2023-04-15T04:58:44.003Z,41.09
2023-04-15T04:59:43.971Z,41.12
2023-04-15T05:00:43.968Z,41.10
2023-04-15T05:01:44.028Z,41.09
2023-04-15T05:02:44.129Z,41.10
2023-04-15T05:03:44.015Z,41.08
2023-04-15T05:04:43.950Z,41.09
2023-04-15T05:05:43.936Z,41.08
2023-04-15T05:06:43.939Z,41.07
2023-04-15T05:07:43.928Z,41.04
2023-04-15T05:08:43.929Z,41.05
2023-04-15T05:09:43.933Z,41.03
2023-04-15T05:10:43.930Z,41.01
2023-04-15T05:11:43.930Z,41.03
2023-04-15T05:12:43.932Z,41.03
2023-04-15T05:13:43.934Z,40.99
2023-04-15T05:14:43.922Z,40.99
2023-04-15T05:15:43.953Z,41.01
2023-04-15T05:16:43.921Z,41.02
2023-04-15T05:17:43.960Z,40.94
2023-04-15T05:18:43.922Z,40.95
2023-04-15T05:19:43.917Z,40.95
2023-04-15T05:20:43.913Z,40.95
2023-04-15T05:21:43.923Z,40.93
2023-04-15T05:22:43.913Z,40.92
2023-04-15T05:23:43.918Z,40.90
2023-04-15T05:24:43.930Z,40.90
2023-04-15T05:25:43.929Z,40.90
2023-04-15T05:26:43.931Z,40.90
2023-04-15T05:27:43.929Z,40.88
2023-04-15T05:28:43.926Z,40.88
2023-04-15T05:29:43.932Z,40.89
2023-04-15T05:30:43.925Z,40.86
2023-04-15T05:31:43.926Z,40.86
2023-04-15T05:32:43.970Z,40.87
2023-04-15T05:33:43.921Z,40.86
2023-04-15T05:34:43.921Z,40.85
2023-04-15T05:35:43.944Z,40.83
2023-04-15T05:36:43.924Z,40.84
2023-04-15T05:37:43.925Z,40.84
2023-04-15T05:38:43.900Z,40.81
2023-04-15T05:39:43.906Z,40.80
2023-04-15T05:40:43.897Z,40.82
2023-04-15T05:41:43.910Z,40.79
2023-04-15T05:42:43.924Z,40.79
2023-04-15T05:43:43.920Z,40.77
2023-04-15T05:44:43.920Z,40.76
2023-04-15T05:45:43.912Z,40.76
2023-04-15T05:46:43.943Z,40.75
2023-04-15T05:47:43.915Z,40.75
2023-04-15T05:48:43.925Z,40.73
2023-04-15T05:49:43.906Z,40.75
2023-04-15T05:50:43.925Z,40.72
2023-04-15T05:51:43.907Z,40.70
2023-04-15T05:52:43.911Z,40.71
2023-04-15T05:53:43.910Z,40.71
2023-04-15T05:54:43.921Z,40.67
2023-04-15T05:55:43.911Z,40.66
2023-04-15T05:56:43.918Z,40.67
2023-04-15T05:57:43.899Z,40.67
2023-04-15T05:58:43.891Z,40.63
2023-04-15T05:59:43.900Z,40.64
2023-04-15T06:00:43.913Z,40.65
2023-04-15T06:01:43.899Z,40.63
2023-04-15T06:02:44.059Z,40.61
2023-04-15T06:03:43.997Z,40.61
2023-04-15T06:04:43.933Z,40.59
2023-04-15T06:05:43.887Z,40.61
2023-04-15T06:06:43.872Z,40.57
2023-04-15T06:07:44.421Z,40.57
2023-04-15T06:08:43.855Z,40.57
2023-04-15T06:09:43.850Z,40.55
2023-04-15T06:10:44.604Z,40.55
2023-04-15T06:11:43.855Z,40.56
2023-04-15T06:12:43.844Z,40.53
2023-04-15T06:13:43.846Z,40.53
2023-04-15T06:14:43.833Z,40.52
2023-04-15T06:15:43.832Z,40.52
2023-04-15T06:16:44.081Z,40.49
2023-04-15T06:17:43.837Z,40.50
2023-04-15T06:18:43.828Z,40.51
2023-04-15T06:19:43.826Z,40.48
2023-04-15T06:20:43.823Z,40.46
2023-04-15T06:21:43.833Z,40.45
2023-04-15T06:22:43.826Z,40.44
2023-04-15T06:23:43.811Z,40.43
2023-04-15T06:24:43.810Z,40.43
2023-04-15T06:25:43.804Z,40.42
2023-04-15T06:26:43.800Z,40.41
2023-04-15T06:27:43.797Z,40.37
2023-04-15T06:28:43.788Z,40.37
2023-04-15T06:29:43.790Z,40.37
2023-04-15T06:30:43.787Z,40.34
2023-04-15T06:31:43.837Z,40.36
2023-04-15T06:32:43.822Z,40.30
2023-04-15T06:33:43.778Z,40.31
2023-04-15T06:34:43.793Z,40.29
2023-04-15T06:35:43.779Z,40.29
2023-04-15T06:36:43.782Z,40.25
2023-04-15T06:37:43.787Z,40.27
2023-04-15T06:38:43.781Z,40.26
2023-04-15T06:39:43.781Z,40.23
2023-04-15T06:40:43.784Z,40.21
2023-04-15T06:41:43.777Z,40.19
2023-04-15T06:42:43.774Z,40.16
2023-04-15T06:43:43.770Z,40.14
2023-04-15T06:44:43.773Z,40.12
2023-04-15T06:45:43.819Z,40.11
2023-04-15T06:46:43.776Z,40.12
2023-04-15T06:47:43.849Z,40.09
2023-04-15T06:48:43.773Z,40.11
2023-04-15T06:49:43.768Z,40.05
2023-04-15T06:50:43.792Z,40.07
2023-04-15T06:51:43.760Z,40.05
2023-04-15T06:52:43.772Z,40.04
2023-04-15T06:53:43.778Z,40.04
2023-04-15T06:54:43.774Z,40.02
2023-04-15T06:55:43.779Z,40.02
2023-04-15T06:56:43.789Z,40.01
2023-04-15T06:57:43.771Z,39.98
2023-04-15T06:58:43.775Z,39.97
2023-04-15T06:59:43.776Z,39.92
2023-04-15T07:00:43.810Z,39.94
2023-04-15T07:01:43.778Z,39.93
2023-04-15T07:02:43.909Z,39.90
2023-04-15T07:03:43.780Z,39.90
2023-04-15T07:04:43.785Z,39.90
2023-04-15T07:05:43.770Z,39.88
2023-04-15T07:06:43.769Z,39.87
2023-04-15T07:07:43.765Z,39.82
2023-04-15T07:08:43.780Z,39.85
2023-04-15T07:09:43.789Z,39.81
2023-04-15T07:10:43.833Z,39.82
2023-04-15T07:11:43.862Z,39.79
2023-04-15T07:12:43.898Z,39.79
2023-04-15T07:13:43.934Z,39.77
2023-04-15T07:14:43.986Z,39.76
2023-04-15T07:15:44.047Z,39.76
2023-04-15T07:16:44.140Z,39.75
2023-04-15T07:17:44.166Z,39.75
2023-04-15T07:18:44.218Z,39.73
2023-04-15T07:19:44.280Z,39.76
2023-04-15T07:20:44.335Z,39.74
2023-04-15T07:21:44.383Z,39.75
2023-04-15T07:22:44.451Z,39.72
2023-04-15T07:23:44.499Z,39.71
2023-04-15T07:24:44.534Z,39.71
2023-04-15T07:25:45.125Z,39.70
2023-04-15T07:26:44.609Z,39.73
2023-04-15T07:27:44.674Z,39.73
2023-04-15T07:28:44.717Z,39.70
2023-04-15T07:29:44.737Z,39.72
2023-04-15T07:30:44.830Z,39.72
2023-04-15T07:31:44.842Z,39.70
2023-04-15T07:32:44.960Z,39.70
2023-04-15T07:33:44.961Z,39.71
2023-04-15T07:34:45.006Z,39.68
2023-04-15T07:35:45.017Z,39.71
2023-04-15T07:36:45.076Z,39.73
2023-04-15T07:37:45.103Z,39.67
2023-04-15T07:38:45.163Z,39.68
2023-04-15T07:39:45.218Z,39.69
2023-04-15T07:40:45.263Z,39.72
2023-04-15T07:41:45.287Z,39.69
2023-04-15T07:42:45.308Z,39.69
2023-04-15T07:43:45.354Z,39.68
2023-04-15T07:44:45.421Z,39.68
2023-04-15T07:45:45.540Z,39.69
2023-04-15T07:46:45.532Z,39.68
2023-04-15T07:47:45.629Z,39.65
2023-04-15T07:48:45.605Z,39.65
2023-04-15T07:49:45.666Z,39.66
2023-04-15T07:50:45.680Z,39.65
2023-04-15T07:51:45.724Z,39.68
2023-04-15T07:52:45.782Z,39.69
2023-04-15T07:53:45.833Z,39.67
2023-04-15T07:54:45.871Z,39.68
2023-04-15T07:55:45.946Z,39.66
2023-04-15T07:56:46.020Z,39.66
2023-04-15T07:57:46.091Z,39.66
2023-04-15T07:58:46.164Z,39.65
2023-04-15T07:59:46.242Z,39.65
2023-04-15T08:00:46.259Z,39.63
2023-04-15T08:01:46.293Z,39.63
2023-04-15T08:02:46.467Z,39.63
2023-04-15T08:03:46.589Z,39.64
2023-04-15T08:04:46.453Z,39.64
2023-04-15T08:05:47.215Z,39.63
2023-04-15T08:06:46.430Z,39.63
2023-04-15T08:07:46.450Z,39.60
2023-04-15T08:08:46.489Z,39.63
2023-04-15T08:09:46.531Z,39.59
2023-04-15T08:10:46.562Z,39.60
2023-04-15T08:11:46.574Z,39.60
2023-04-15T08:12:46.611Z,39.58
2023-04-15T08:13:46.662Z,39.57
2023-04-15T08:14:46.700Z,39.58
2023-04-15T08:15:46.776Z,39.54
2023-04-15T08:16:46.804Z,39.55
2023-04-15T08:17:46.924Z,39.54
2023-04-15T08:18:46.854Z,39.53
2023-04-15T08:19:46.870Z,39.51
2023-04-15T08:20:46.929Z,39.52
2023-04-15T08:21:46.974Z,39.52
2023-04-15T08:22:46.996Z,39.51
2023-04-15T08:23:47.007Z,39.47
2023-04-15T08:24:47.074Z,39.48
2023-04-15T08:25:47.112Z,39.47
2023-04-15T08:26:47.156Z,39.46
2023-04-15T08:27:47.189Z,39.45
2023-04-15T08:28:47.199Z,39.44
2023-04-15T08:29:47.249Z,39.42
2023-04-15T08:30:47.270Z,39.44
2023-04-15T08:31:47.302Z,39.43
2023-04-15T08:32:47.510Z,39.45
2023-04-15T08:33:47.321Z,39.42
2023-04-15T08:34:47.343Z,39.39
2023-04-15T08:35:47.360Z,39.41
2023-04-15T08:36:47.417Z,39.41
2023-04-15T08:37:47.434Z,39.38
2023-04-15T08:38:47.461Z,39.40
2023-04-15T08:39:47.502Z,39.40
2023-04-15T08:40:47.493Z,39.37
2023-04-15T08:41:47.544Z,39.35
2023-04-15T08:42:47.584Z,39.35
2023-04-15T08:43:47.612Z,39.35
2023-04-15T08:44:47.631Z,39.33
2023-04-15T08:45:47.671Z,39.31
2023-04-15T08:46:47.734Z,39.30
2023-04-15T08:47:47.843Z,39.30
2023-04-15T08:48:47.789Z,39.29
2023-04-15T08:49:47.858Z,39.26
2023-04-15T08:50:47.891Z,39.27
2023-04-15T08:51:47.946Z,39.24
2023-04-15T08:52:48.013Z,39.24
2023-04-15T08:53:48.075Z,39.24
2023-04-15T08:54:48.142Z,39.22
2023-04-15T08:55:48.207Z,39.20
2023-04-15T08:56:48.299Z,39.20
2023-04-15T08:57:48.331Z,39.19
2023-04-15T08:58:48.390Z,39.18
2023-04-15T08:59:48.431Z,39.19
2023-04-15T09:00:48.504Z,39.18
2023-04-15T09:01:48.563Z,39.20
2023-04-15T09:02:48.743Z,39.20
2023-04-15T09:03:48.792Z,39.17
2023-04-15T09:04:48.642Z,39.19
2023-04-15T09:05:48.687Z,39.18
2023-04-15T09:06:48.775Z,39.16
2023-04-15T09:07:48.861Z,39.16
2023-04-15T09:08:48.873Z,39.17
2023-04-15T09:09:48.956Z,39.17
2023-04-15T09:10:49.017Z,39.19
2023-04-15T09:11:49.069Z,39.13
2023-04-15T09:12:49.121Z,39.16
2023-04-15T09:13:49.186Z,39.13
2023-04-15T09:14:49.262Z,39.12
2023-04-15T09:15:49.319Z,39.14
2023-04-15T09:16:50.555Z,39.11
2023-04-15T09:17:49.495Z,39.12
2023-04-15T09:18:49.516Z,39.12
2023-04-15T09:19:49.579Z,39.11
2023-04-15T09:20:49.640Z,39.11
2023-04-15T09:21:49.679Z,39.11
2023-04-15T09:22:49.745Z,39.13
2023-04-15T09:23:49.807Z,39.10
2023-04-15T09:24:49.863Z,39.09
2023-04-15T09:25:49.932Z,39.11
2023-04-15T09:26:49.986Z,39.09
2023-04-15T09:27:50.060Z,39.09
2023-04-15T09:28:50.114Z,39.11
2023-04-15T09:29:50.197Z,39.09
2023-04-15T09:30:50.944Z,39.07
2023-04-15T09:31:50.292Z,39.09
2023-04-15T09:32:50.388Z,39.07
2023-04-15T09:33:50.415Z,39.07
2023-04-15T09:34:50.480Z,39.07
2023-04-15T09:35:50.542Z,39.07
2023-04-15T09:36:51.158Z,39.05
2023-04-15T09:37:50.650Z,39.02
2023-04-15T09:38:50.723Z,39.07
2023-04-15T09:39:50.783Z,39.04
2023-04-15T09:40:50.834Z,39.01
2023-04-15T09:41:50.891Z,39.03
2023-04-15T09:42:50.948Z,39.00
2023-04-15T09:43:51.005Z,38.99
2023-04-15T09:44:51.087Z,38.97
2023-04-15T09:45:51.160Z,38.94
2023-04-15T09:46:51.195Z,38.94
2023-04-15T09:47:51.326Z,38.95
2023-04-15T09:48:51.308Z,38.94
2023-04-15T09:49:51.411Z,38.90
2023-04-15T09:50:51.424Z,38.90
2023-04-15T09:52:04.586Z,38.94
2023-04-15T09:52:52.478Z,38.91
2023-04-15T09:53:51.469Z,38.91
2023-04-15T09:54:51.473Z,38.95
2023-04-15T09:55:51.457Z,38.92
2023-04-15T09:56:51.449Z,38.93
2023-04-15T09:57:51.439Z,38.93
2023-04-15T09:58:51.489Z,38.90
2023-04-15T09:59:51.430Z,38.90
2023-04-15T10:00:51.418Z,38.89
2023-04-15T10:01:51.567Z,38.88
2023-04-15T10:02:51.690Z,38.88
2023-04-15T10:03:51.655Z,38.89
2023-04-15T10:04:51.660Z,38.87
2023-04-15T10:05:51.724Z,38.87
2023-04-15T10:06:51.777Z,38.87
2023-04-15T10:07:51.843Z,38.89
2023-04-15T10:08:51.969Z,38.89
2023-04-15T10:09:51.970Z,38.87
2023-04-15T10:10:52.021Z,38.86
2023-04-15T10:11:52.063Z,38.85
2023-04-15T10:12:52.128Z,38.85
2023-04-15T10:13:52.192Z,38.85
2023-04-15T10:14:52.255Z,38.85
2023-04-15T10:15:52.358Z,38.87
2023-04-15T10:16:52.379Z,38.87
2023-04-15T10:17:52.475Z,38.88
2023-04-15T10:18:52.495Z,38.89
2023-04-15T10:19:52.558Z,38.86
2023-04-15T10:20:52.609Z,38.88
2023-04-15T10:21:52.715Z,38.89
2023-04-15T10:22:52.740Z,38.86
2023-04-15T10:23:52.790Z,38.84
2023-04-15T10:24:52.848Z,38.85
2023-04-15T10:25:52.905Z,38.82
2023-04-15T10:26:52.968Z,38.83
2023-04-15T10:27:53.023Z,38.82
2023-04-15T10:28:53.085Z,38.82
2023-04-15T10:29:53.149Z,38.81
2023-04-15T10:30:53.232Z,38.85
2023-04-15T10:31:53.368Z,38.81
2023-04-15T10:32:53.340Z,38.78
2023-04-15T10:33:53.358Z,38.78
2023-04-15T10:34:54.600Z,38.79
2023-04-15T10:35:53.481Z,38.79
2023-04-15T10:36:53.531Z,38.79
2023-04-15T10:37:53.583Z,38.79
2023-04-15T10:38:53.628Z,38.81
2023-04-15T10:39:53.702Z,38.79
2023-04-15T10:40:53.746Z,38.77
2023-04-15T10:41:53.801Z,38.78
2023-04-15T10:42:53.848Z,38.79
2023-04-15T10:43:53.914Z,38.81
2023-04-15T10:44:53.971Z,38.79
2023-04-15T10:45:54.022Z,38.78
2023-04-15T10:46:54.201Z,38.78
2023-04-15T10:47:54.205Z,38.78
2023-04-15T10:48:54.200Z,38.76
2023-04-15T10:49:54.259Z,38.80
2023-04-15T10:50:54.309Z,38.77
2023-04-15T10:51:54.379Z,38.77
2023-04-15T10:52:54.440Z,38.77
2023-04-15T10:53:54.522Z,38.78
2023-04-15T10:54:54.560Z,38.77
2023-04-15T10:55:54.613Z,38.76
2023-04-15T10:56:54.678Z,38.75
2023-04-15T10:57:54.744Z,38.71
2023-04-15T10:58:54.796Z,38.72
2023-04-15T10:59:54.866Z,38.71
2023-04-15T11:00:54.933Z,38.74
2023-04-15T11:01:55.138Z,38.76
2023-04-15T11:02:55.132Z,38.78
2023-04-15T11:03:55.134Z,38.78
2023-04-15T11:04:55.458Z,38.78
2023-04-15T11:05:55.223Z,38.77
2023-04-15T11:06:55.285Z,38.79
2023-04-15T11:07:55.390Z,38.78
2023-04-15T11:08:55.403Z,38.75
2023-04-15T11:09:55.479Z,38.71
2023-04-15T11:10:55.549Z,38.71
2023-04-15T11:11:55.599Z,38.73
2023-04-15T11:12:55.673Z,38.72
2023-04-15T11:13:55.720Z,38.74
2023-04-15T11:14:55.781Z,38.73
2023-04-15T11:15:55.874Z,38.68
2023-04-15T11:16:55.916Z,38.71
2023-04-15T11:17:55.997Z,38.67
2023-04-15T11:18:56.038Z,38.65
2023-04-15T11:19:56.088Z,38.67
2023-04-15T11:20:56.138Z,38.63
2023-04-15T11:21:56.205Z,38.65
2023-04-15T11:23:08.239Z,38.65
2023-04-15T11:23:57.268Z,38.62
2023-04-15T11:24:56.255Z,38.63
2023-04-15T11:25:56.242Z,38.62
2023-04-15T11:26:56.227Z,38.61
2023-04-15T11:27:56.228Z,38.63
2023-04-15T11:28:56.218Z,38.61
2023-04-15T11:29:56.203Z,38.61
2023-04-15T11:30:56.196Z,38.59
2023-04-15T11:31:56.229Z,38.59
2023-04-15T11:32:56.327Z,38.55
2023-04-15T11:33:56.315Z,38.56
2023-04-15T11:34:56.386Z,38.58
2023-04-15T11:35:56.446Z,38.61
2023-04-15T11:36:56.504Z,38.61
2023-04-15T11:37:56.598Z,38.60
2023-04-15T11:38:56.653Z,38.63
2023-04-15T11:39:56.695Z,38.62
2023-04-15T11:40:56.763Z,38.61
2023-04-15T11:41:56.812Z,38.62
2023-04-15T11:42:56.863Z,38.66
2023-04-15T11:43:56.921Z,38.65
2023-04-15T11:44:56.994Z,38.62
2023-04-15T11:45:57.069Z,38.63
2023-04-15T11:46:57.103Z,38.62
2023-04-15T11:47:57.179Z,38.63
2023-04-15T11:48:57.215Z,38.68
2023-04-15T11:49:57.287Z,38.64
2023-04-15T11:50:57.357Z,38.68
2023-04-15T11:51:57.420Z,38.66
2023-04-15T11:52:57.486Z,38.67
2023-04-15T11:53:57.527Z,38.66
2023-04-15T11:54:57.601Z,38.66
2023-04-15T11:55:57.665Z,38.64
2023-04-15T11:56:57.741Z,38.62
2023-04-15T11:57:57.792Z,38.63
2023-04-15T11:58:57.864Z,38.66
2023-04-15T11:59:57.935Z,38.65
2023-04-15T12:00:57.988Z,38.64
2023-04-15T12:01:58.129Z,38.64
2023-04-15T12:02:58.233Z,38.64
2023-04-15T12:03:58.312Z,38.63
2023-04-15T12:04:58.306Z,38.63
2023-04-15T12:05:58.317Z,38.65
2023-04-15T12:06:58.377Z,38.66
2023-04-15T12:07:58.443Z,38.67
2023-04-15T12:08:58.510Z,38.69
2023-04-15T12:09:58.587Z,38.70
2023-04-15T12:10:58.637Z,38.71
2023-04-15T12:11:58.792Z,38.71
2023-04-15T12:12:58.752Z,38.74
2023-04-15T12:13:58.809Z,38.73
2023-04-15T12:14:58.868Z,38.73
2023-04-15T12:15:58.964Z,38.70
2023-04-15T12:16:58.955Z,38.68
2023-04-15T12:17:59.038Z,38.65
2023-04-15T12:18:59.064Z,38.63
2023-04-15T12:19:59.073Z,38.68
2023-04-15T12:20:59.149Z,38.68
2023-04-15T12:22:00.505Z,38.70
2023-04-15T12:22:59.275Z,38.69
2023-04-15T12:23:59.347Z,38.66
2023-04-15T12:24:59.421Z,38.66
2023-04-15T12:25:59.494Z,38.65
2023-04-15T12:26:59.564Z,38.65
2023-04-15T12:27:59.646Z,38.61
2023-04-15T12:28:59.693Z,38.64
2023-04-15T12:29:59.761Z,38.63
2023-04-15T12:30:59.847Z,38.64
2023-04-15T12:31:59.899Z,38.64
2023-04-15T12:33:00.003Z,38.65
2023-04-15T12:34:00.041Z,38.62
2023-04-15T12:35:00.111Z,38.66
2023-04-15T12:36:00.187Z,38.64
2023-04-15T12:37:00.240Z,38.62
2023-04-15T12:38:00.309Z,38.57
2023-04-15T12:39:00.380Z,38.59
2023-04-15T12:40:00.449Z,38.61
2023-04-15T12:41:00.516Z,38.61
2023-04-15T12:42:00.698Z,38.56
2023-04-15T12:43:00.623Z,38.56
2023-04-15T12:44:00.700Z,38.56
2023-04-15T12:45:01.110Z,38.60
2023-04-15T12:46:00.824Z,38.59
2023-04-15T12:47:00.979Z,38.62
2023-04-15T12:48:00.946Z,38.60
2023-04-15T12:49:01.018Z,38.61
2023-04-15T12:50:01.088Z,38.61
2023-04-15T12:51:01.173Z,38.61
2023-04-15T12:52:01.238Z,38.60
2023-04-15T12:53:01.319Z,38.58
2023-04-15T12:54:01.484Z,38.59